sensor_id;sensor_type;location;lat;lon;timestamp;temperature;humidity
12708;DHT22;6418;50.824;4.718;2022-12-07T00:00:54;4.60;99.90
12708;DHT22;6418;50.824;4.718;2022-12-07T00:03:21;4.60;99.90
12708;DHT22;6418;50.824;4.718;2022-12-07T00:05:48;4.60;99.90
12708;DHT22;6418;50.824;4.718;2022-12-07T00:08:15;4.60;99.90
12708;DHT22;6418;50.824;4.718;2022-12-07T00:10:42;4.60;99.90
12708;DHT22;6418;50.824;4.718;2022-12-07T00:13:09;4.60;99.90
12708;DHT22;6418;50.824;4.718;2022-12-07T00:15:37;4.50;99.90
12708;DHT22;6418;50.824;4.718;2022-12-07T00:18:04;4.50;99.90
12708;DHT22;6418;50.824;4.718;2022-12-07T00:20:31;4.50;99.90
12708;DHT22;6418;50.824;4.718;2022-12-07T00:22:58;4.40;99.90
12708;DHT22;6418;50.824;4.718;2022-12-07T00:25:25;4.50;99.90
12708;DHT22;6418;50.824;4.718;2022-12-07T00:27:53;4.50;99.90
12708;DHT22;6418;50.824;4.718;2022-12-07T00:30:21;4.50;99.90
12708;DHT22;6418;50.824;4.718;2022-12-07T00:32:49;4.50;99.90
12708;DHT22;6418;50.824;4.718;2022-12-07T00:35:16;4.50;99.90
12708;DHT22;6418;50.824;4.718;2022-12-07T00:37:43;4.40;99.90
12708;DHT22;6418;50.824;4.718;2022-12-07T00:40:10;4.40;99.90
12708;DHT22;6418;50.824;4.718;2022-12-07T00:42:37;4.50;99.90
12708;DHT22;6418;50.824;4.718;2022-12-07T00:45:05;4.50;99.90
12708;DHT22;6418;50.824;4.718;2022-12-07T00:47:32;4.40;99.90
12708;DHT22;6418;50.824;4.718;2022-12-07T00:50:01;4.40;99.90
12708;DHT22;6418;50.824;4.718;2022-12-07T00:52:27;4.40;99.90
12708;DHT22;6418;50.824;4.718;2022-12-07T00:54:54;4.40;99.90
12708;DHT22;6418;50.824;4.718;2022-12-07T00:57:21;4.40;99.90
12708;DHT22;6418;50.824;4.718;2022-12-07T00:59:50;4.30;99.90
12708;DHT22;6418;50.824;4.718;2022-12-07T01:02:20;4.30;99.90
12708;DHT22;6418;50.824;4.718;2022-12-07T01:04:47;4.30;99.90
12708;DHT22;6418;50.824;4.718;2022-12-07T01:07:16;4.30;99.90
12708;DHT22;6418;50.824;4.718;2022-12-07T01:09:43;4.30;99.90
12708;DHT22;6418;50.824;4.718;2022-12-07T01:12:09;4.30;99.90
12708;DHT22;6418;50.824;4.718;2022-12-07T01:14:36;4.40;99.90
12708;DHT22;6418;50.824;4.718;2022-12-07T01:17:03;4.20;99.90
12708;DHT22;6418;50.824;4.718;2022-12-07T01:19:30;4.20;99.90
12708;DHT22;6418;50.824;4.718;2022-12-07T01:21:57;4.20;99.90
12708;DHT22;6418;50.824;4.718;2022-12-07T01:24:25;4.20;99.90
12708;DHT22;6418;50.824;4.718;2022-12-07T01:26:52;4.20;99.90
12708;DHT22;6418;50.824;4.718;2022-12-07T01:29:19;4.20;99.90
12708;DHT22;6418;50.824;4.718;2022-12-07T01:31:48;4.20;99.90
12708;DHT22;6418;50.824;4.718;2022-12-07T01:34:15;4.20;99.90
12708;DHT22;6418;50.824;4.718;2022-12-07T01:36:42;4.10;99.90
12708;DHT22;6418;50.824;4.718;2022-12-07T01:39:10;4.10;99.90
12708;DHT22;6418;50.824;4.718;2022-12-07T01:41:40;4.10;99.90
12708;DHT22;6418;50.824;4.718;2022-12-07T01:44:20;4.00;99.90
12708;DHT22;6418;50.824;4.718;2022-12-07T01:46:49;4.00;99.90
12708;DHT22;6418;50.824;4.718;2022-12-07T01:49:21;4.00;99.90
12708;DHT22;6418;50.824;4.718;2022-12-07T01:51:53;4.00;99.90
12708;DHT22;6418;50.824;4.718;2022-12-07T01:54:21;3.90;99.90
12708;DHT22;6418;50.824;4.718;2022-12-07T01:56:53;3.90;99.90
12708;DHT22;6418;50.824;4.718;2022-12-07T01:59:23;3.90;99.90
12708;DHT22;6418;50.824;4.718;2022-12-07T02:01:52;3.80;99.90
12708;DHT22;6418;50.824;4.718;2022-12-07T02:04:19;3.90;99.90
12708;DHT22;6418;50.824;4.718;2022-12-07T02:06:47;3.80;99.90
12708;DHT22;6418;50.824;4.718;2022-12-07T02:09:14;3.80;99.90
12708;DHT22;6418;50.824;4.718;2022-12-07T02:11:41;3.80;99.90
12708;DHT22;6418;50.824;4.718;2022-12-07T02:14:09;3.80;99.90
12708;DHT22;6418;50.824;4.718;2022-12-07T02:16:46;3.80;99.90
12708;DHT22;6418;50.824;4.718;2022-12-07T02:22:36;3.80;99.90
12708;DHT22;6418;50.824;4.718;2022-12-07T02:25:17;3.90;99.90
12708;DHT22;6418;50.824;4.718;2022-12-07T02:27:51;3.90;99.90
12708;DHT22;6418;50.824;4.718;2022-12-07T02:30:27;3.90;99.90
12708;DHT22;6418;50.824;4.718;2022-12-07T02:33:00;3.90;99.90
12708;DHT22;6418;50.824;4.718;2022-12-07T02:35:30;3.90;99.90
12708;DHT22;6418;50.824;4.718;2022-12-07T02:38:03;3.90;99.90
12708;DHT22;6418;50.824;4.718;2022-12-07T02:40:35;3.90;99.90
12708;DHT22;6418;50.824;4.718;2022-12-07T02:43:08;3.90;99.90
12708;DHT22;6418;50.824;4.718;2022-12-07T02:45:39;3.90;99.90
12708;DHT22;6418;50.824;4.718;2022-12-07T02:48:09;3.90;99.90
12708;DHT22;6418;50.824;4.718;2022-12-07T02:50:38;3.90;99.90
12708;DHT22;6418;50.824;4.718;2022-12-07T02:53:04;3.90;99.90
12708;DHT22;6418;50.824;4.718;2022-12-07T02:55:38;3.90;99.90
12708;DHT22;6418;50.824;4.718;2022-12-07T02:58:18;3.90;99.90
12708;DHT22;6418;50.824;4.718;2022-12-07T03:00:54;3.90;99.90
12708;DHT22;6418;50.824;4.718;2022-12-07T03:03:25;3.90;99.90
12708;DHT22;6418;50.824;4.718;2022-12-07T03:06:03;3.90;99.90
12708;DHT22;6418;50.824;4.718;2022-12-07T03:08:44;3.90;99.90
12708;DHT22;6418;50.824;4.718;2022-12-07T03:11:14;3.90;99.90
12708;DHT22;6418;50.824;4.718;2022-12-07T03:13:47;3.90;99.90
12708;DHT22;6418;50.824;4.718;2022-12-07T03:16:18;3.90;99.90
12708;DHT22;6418;50.824;4.718;2022-12-07T03:18:49;3.90;99.90
12708;DHT22;6418;50.824;4.718;2022-12-07T03:21:21;3.90;99.90
12708;DHT22;6418;50.824;4.718;2022-12-07T03:23:53;3.80;99.90
12708;DHT22;6418;50.824;4.718;2022-12-07T03:26:23;3.80;99.90
12708;DHT22;6418;50.824;4.718;2022-12-07T03:28:54;3.80;99.90
12708;DHT22;6418;50.824;4.718;2022-12-07T03:31:26;3.80;99.90
12708;DHT22;6418;50.824;4.718;2022-12-07T03:33:59;3.80;99.90
12708;DHT22;6418;50.824;4.718;2022-12-07T03:36:31;3.80;99.90
12708;DHT22;6418;50.824;4.718;2022-12-07T03:39:11;3.80;99.90
12708;DHT22;6418;50.824;4.718;2022-12-07T03:41:39;3.80;99.90
12708;DHT22;6418;50.824;4.718;2022-12-07T03:44:07;3.80;99.90
12708;DHT22;6418;50.824;4.718;2022-12-07T03:46:42;3.80;99.90
12708;DHT22;6418;50.824;4.718;2022-12-07T03:49:14;3.70;99.90
12708;DHT22;6418;50.824;4.718;2022-12-07T03:51:46;3.80;99.90
12708;DHT22;6418;50.824;4.718;2022-12-07T03:54:19;3.80;99.90
12708;DHT22;6418;50.824;4.718;2022-12-07T03:56:49;3.80;99.90
12708;DHT22;6418;50.824;4.718;2022-12-07T03:59:17;3.80;99.90
12708;DHT22;6418;50.824;4.718;2022-12-07T04:01:51;3.80;99.90
12708;DHT22;6418;50.824;4.718;2022-12-07T04:04:19;3.80;99.90
12708;DHT22;6418;50.824;4.718;2022-12-07T04:06:46;3.80;99.90
12708;DHT22;6418;50.824;4.718;2022-12-07T04:09:14;3.80;99.90
12708;DHT22;6418;50.824;4.718;2022-12-07T04:11:42;3.80;99.90
12708;DHT22;6418;50.824;4.718;2022-12-07T04:14:09;3.80;99.90
12708;DHT22;6418;50.824;4.718;2022-12-07T04:16:46;3.80;99.90
12708;DHT22;6418;50.824;4.718;2022-12-07T04:19:13;3.80;99.90
12708;DHT22;6418;50.824;4.718;2022-12-07T04:21:40;3.70;99.90
12708;DHT22;6418;50.824;4.718;2022-12-07T04:24:07;3.70;99.90
12708;DHT22;6418;50.824;4.718;2022-12-07T04:26:34;3.70;99.90
12708;DHT22;6418;50.824;4.718;2022-12-07T04:29:01;3.70;99.90
12708;DHT22;6418;50.824;4.718;2022-12-07T04:31:28;3.70;99.90
12708;DHT22;6418;50.824;4.718;2022-12-07T04:33:56;3.70;99.90
12708;DHT22;6418;50.824;4.718;2022-12-07T04:36:23;3.60;99.90
12708;DHT22;6418;50.824;4.718;2022-12-07T04:38:53;3.60;99.90
12708;DHT22;6418;50.824;4.718;2022-12-07T04:41:20;3.50;99.90
12708;DHT22;6418;50.824;4.718;2022-12-07T04:43:53;3.40;99.90
12708;DHT22;6418;50.824;4.718;2022-12-07T04:46:19;3.40;99.90
12708;DHT22;6418;50.824;4.718;2022-12-07T04:48:46;3.40;99.90
12708;DHT22;6418;50.824;4.718;2022-12-07T04:51:18;3.40;99.90
12708;DHT22;6418;50.824;4.718;2022-12-07T04:53:45;3.40;99.90
12708;DHT22;6418;50.824;4.718;2022-12-07T04:56:14;3.30;99.90
12708;DHT22;6418;50.824;4.718;2022-12-07T04:58:43;3.30;99.90
12708;DHT22;6418;50.824;4.718;2022-12-07T05:01:11;3.20;99.90
12708;DHT22;6418;50.824;4.718;2022-12-07T05:03:39;3.30;99.90
12708;DHT22;6418;50.824;4.718;2022-12-07T05:06:07;3.20;99.90
12708;DHT22;6418;50.824;4.718;2022-12-07T05:08:36;3.20;99.90
12708;DHT22;6418;50.824;4.718;2022-12-07T05:11:05;3.20;99.90
12708;DHT22;6418;50.824;4.718;2022-12-07T05:13:33;3.10;99.90
12708;DHT22;6418;50.824;4.718;2022-12-07T05:16:00;3.10;99.90
12708;DHT22;6418;50.824;4.718;2022-12-07T05:18:27;3.10;99.90
12708;DHT22;6418;50.824;4.718;2022-12-07T05:20:54;3.10;99.90
12708;DHT22;6418;50.824;4.718;2022-12-07T05:23:20;3.00;99.90
12708;DHT22;6418;50.824;4.718;2022-12-07T05:25:49;3.00;99.90
12708;DHT22;6418;50.824;4.718;2022-12-07T05:28:15;3.00;99.90
12708;DHT22;6418;50.824;4.718;2022-12-07T05:30:42;2.90;99.90
12708;DHT22;6418;50.824;4.718;2022-12-07T05:33:09;2.90;99.90
12708;DHT22;6418;50.824;4.718;2022-12-07T05:35:36;2.80;99.90
12708;DHT22;6418;50.824;4.718;2022-12-07T05:38:03;2.90;99.90
12708;DHT22;6418;50.824;4.718;2022-12-07T05:40:30;2.80;99.90
12708;DHT22;6418;50.824;4.718;2022-12-07T05:42:58;2.80;99.90
12708;DHT22;6418;50.824;4.718;2022-12-07T05:45:25;2.80;99.90
12708;DHT22;6418;50.824;4.718;2022-12-07T05:47:52;2.90;99.90
12708;DHT22;6418;50.824;4.718;2022-12-07T05:50:19;2.80;99.90
12708;DHT22;6418;50.824;4.718;2022-12-07T05:52:46;2.90;99.90
12708;DHT22;6418;50.824;4.718;2022-12-07T05:55:13;2.90;99.90
12708;DHT22;6418;50.824;4.718;2022-12-07T05:57:40;2.90;99.90
12708;DHT22;6418;50.824;4.718;2022-12-07T06:00:29;3.00;99.90
12708;DHT22;6418;50.824;4.718;2022-12-07T06:02:55;3.00;99.90
12708;DHT22;6418;50.824;4.718;2022-12-07T06:05:22;3.00;99.90
12708;DHT22;6418;50.824;4.718;2022-12-07T06:07:49;3.00;99.90
12708;DHT22;6418;50.824;4.718;2022-12-07T06:10:16;3.00;99.90
12708;DHT22;6418;50.824;4.718;2022-12-07T06:12:43;3.00;99.90
12708;DHT22;6418;50.824;4.718;2022-12-07T06:15:11;2.90;99.90
12708;DHT22;6418;50.824;4.718;2022-12-07T06:17:40;2.90;99.90
12708;DHT22;6418;50.824;4.718;2022-12-07T06:20:08;2.90;99.90
12708;DHT22;6418;50.824;4.718;2022-12-07T06:22:35;2.90;99.90
12708;DHT22;6418;50.824;4.718;2022-12-07T06:25:02;2.90;99.90
12708;DHT22;6418;50.824;4.718;2022-12-07T06:27:29;2.80;99.90
12708;DHT22;6418;50.824;4.718;2022-12-07T06:29:58;2.90;99.90
12708;DHT22;6418;50.824;4.718;2022-12-07T06:32:31;2.80;99.90
12708;DHT22;6418;50.824;4.718;2022-12-07T06:35:00;2.80;99.90
12708;DHT22;6418;50.824;4.718;2022-12-07T06:37:27;2.90;99.90
12708;DHT22;6418;50.824;4.718;2022-12-07T06:39:54;2.80;99.90
12708;DHT22;6418;50.824;4.718;2022-12-07T06:42:21;2.80;99.90
12708;DHT22;6418;50.824;4.718;2022-12-07T06:44:48;2.80;99.90
12708;DHT22;6418;50.824;4.718;2022-12-07T06:47:15;2.90;99.90
12708;DHT22;6418;50.824;4.718;2022-12-07T06:49:42;2.80;99.90
12708;DHT22;6418;50.824;4.718;2022-12-07T06:52:11;2.80;99.90
12708;DHT22;6418;50.824;4.718;2022-12-07T06:54:38;2.90;99.90
12708;DHT22;6418;50.824;4.718;2022-12-07T06:57:05;2.90;99.90
12708;DHT22;6418;50.824;4.718;2022-12-07T06:59:32;2.90;99.90
12708;DHT22;6418;50.824;4.718;2022-12-07T07:01:59;2.90;99.90
12708;DHT22;6418;50.824;4.718;2022-12-07T07:04:26;2.80;99.90
12708;DHT22;6418;50.824;4.718;2022-12-07T07:06:53;2.90;99.90
12708;DHT22;6418;50.824;4.718;2022-12-07T07:09:21;2.80;99.90
12708;DHT22;6418;50.824;4.718;2022-12-07T07:11:48;2.90;99.90
12708;DHT22;6418;50.824;4.718;2022-12-07T07:14:15;2.80;99.90
12708;DHT22;6418;50.824;4.718;2022-12-07T07:16:44;2.80;99.90
12708;DHT22;6418;50.824;4.718;2022-12-07T07:19:11;2.80;99.90
12708;DHT22;6418;50.824;4.718;2022-12-07T07:21:38;2.80;99.90
12708;DHT22;6418;50.824;4.718;2022-12-07T07:24:05;2.80;99.90
12708;DHT22;6418;50.824;4.718;2022-12-07T07:26:34;2.80;99.90
12708;DHT22;6418;50.824;4.718;2022-12-07T07:29:00;2.80;99.90
12708;DHT22;6418;50.824;4.718;2022-12-07T07:31:27;2.80;99.90
12708;DHT22;6418;50.824;4.718;2022-12-07T07:33:54;2.80;99.90
12708;DHT22;6418;50.824;4.718;2022-12-07T07:36:21;2.80;99.90
12708;DHT22;6418;50.824;4.718;2022-12-07T07:38:48;2.80;99.90
12708;DHT22;6418;50.824;4.718;2022-12-07T07:41:15;2.80;99.90
12708;DHT22;6418;50.824;4.718;2022-12-07T07:43:43;2.80;99.90
12708;DHT22;6418;50.824;4.718;2022-12-07T07:46:10;2.80;99.90
12708;DHT22;6418;50.824;4.718;2022-12-07T07:48:37;2.80;99.90
12708;DHT22;6418;50.824;4.718;2022-12-07T07:51:05;2.80;99.90
12708;DHT22;6418;50.824;4.718;2022-12-07T07:53:33;2.80;99.90
12708;DHT22;6418;50.824;4.718;2022-12-07T07:55:59;2.90;99.90
12708;DHT22;6418;50.824;4.718;2022-12-07T07:58:27;2.90;99.90
12708;DHT22;6418;50.824;4.718;2022-12-07T08:00:55;3.00;99.90
12708;DHT22;6418;50.824;4.718;2022-12-07T08:03:22;2.90;99.90
12708;DHT22;6418;50.824;4.718;2022-12-07T08:05:49;2.90;99.90
12708;DHT22;6418;50.824;4.718;2022-12-07T08:08:16;3.00;99.90
12708;DHT22;6418;50.824;4.718;2022-12-07T08:10:43;2.90;99.90
12708;DHT22;6418;50.824;4.718;2022-12-07T08:13:10;3.00;99.90
12708;DHT22;6418;50.824;4.718;2022-12-07T08:15:38;3.00;99.90
12708;DHT22;6418;50.824;4.718;2022-12-07T08:18:07;3.00;99.90
12708;DHT22;6418;50.824;4.718;2022-12-07T08:20:35;3.00;99.90
12708;DHT22;6418;50.824;4.718;2022-12-07T08:23:03;2.90;99.90
12708;DHT22;6418;50.824;4.718;2022-12-07T08:25:31;2.90;99.90
12708;DHT22;6418;50.824;4.718;2022-12-07T08:27:59;3.00;99.90
12708;DHT22;6418;50.824;4.718;2022-12-07T08:30:27;2.90;99.90
12708;DHT22;6418;50.824;4.718;2022-12-07T08:32:54;2.90;99.90
12708;DHT22;6418;50.824;4.718;2022-12-07T08:35:22;2.90;99.90
12708;DHT22;6418;50.824;4.718;2022-12-07T08:37:49;2.90;99.90
12708;DHT22;6418;50.824;4.718;2022-12-07T08:40:16;2.80;99.90
12708;DHT22;6418;50.824;4.718;2022-12-07T08:42:47;2.80;99.90
12708;DHT22;6418;50.824;4.718;2022-12-07T08:45:15;2.90;99.90
12708;DHT22;6418;50.824;4.718;2022-12-07T08:47:46;2.80;99.90
12708;DHT22;6418;50.824;4.718;2022-12-07T08:50:15;2.80;99.90
12708;DHT22;6418;50.824;4.718;2022-12-07T08:52:44;2.80;99.90
12708;DHT22;6418;50.824;4.718;2022-12-07T08:55:15;2.80;99.90
12708;DHT22;6418;50.824;4.718;2022-12-07T08:57:41;2.80;99.90
12708;DHT22;6418;50.824;4.718;2022-12-07T09:00:09;2.80;99.90
12708;DHT22;6418;50.824;4.718;2022-12-07T09:02:37;2.80;99.90
12708;DHT22;6418;50.824;4.718;2022-12-07T09:05:04;2.90;99.90
12708;DHT22;6418;50.824;4.718;2022-12-07T09:07:32;2.90;99.90
12708;DHT22;6418;50.824;4.718;2022-12-07T09:10:01;3.00;99.90
12708;DHT22;6418;50.824;4.718;2022-12-07T09:12:28;3.10;99.90
12708;DHT22;6418;50.824;4.718;2022-12-07T09:14:55;3.20;99.90
12708;DHT22;6418;50.824;4.718;2022-12-07T09:17:22;3.30;99.90
12708;DHT22;6418;50.824;4.718;2022-12-07T09:19:49;3.40;99.90
12708;DHT22;6418;50.824;4.718;2022-12-07T09:22:16;3.50;99.90
12708;DHT22;6418;50.824;4.718;2022-12-07T09:24:42;3.60;99.90
12708;DHT22;6418;50.824;4.718;2022-12-07T09:27:12;3.60;99.90
12708;DHT22;6418;50.824;4.718;2022-12-07T09:29:39;3.70;99.90
12708;DHT22;6418;50.824;4.718;2022-12-07T09:32:06;3.80;99.90
12708;DHT22;6418;50.824;4.718;2022-12-07T09:34:33;3.90;99.90
12708;DHT22;6418;50.824;4.718;2022-12-07T09:37:01;3.90;99.90
12708;DHT22;6418;50.824;4.718;2022-12-07T09:39:29;3.90;99.90
12708;DHT22;6418;50.824;4.718;2022-12-07T09:41:57;3.90;99.90
12708;DHT22;6418;50.824;4.718;2022-12-07T09:44:27;4.00;99.90
12708;DHT22;6418;50.824;4.718;2022-12-07T09:46:54;4.10;99.90
12708;DHT22;6418;50.824;4.718;2022-12-07T09:49:23;4.10;99.90
12708;DHT22;6418;50.824;4.718;2022-12-07T09:52:01;4.10;99.90
12708;DHT22;6418;50.824;4.718;2022-12-07T09:54:29;4.10;99.90
12708;DHT22;6418;50.824;4.718;2022-12-07T09:56:57;4.20;99.90
12708;DHT22;6418;50.824;4.718;2022-12-07T09:59:26;4.20;99.90
12708;DHT22;6418;50.824;4.718;2022-12-07T10:01:53;4.30;99.90
12708;DHT22;6418;50.824;4.718;2022-12-07T10:04:21;4.30;99.90
12708;DHT22;6418;50.824;4.718;2022-12-07T10:06:50;4.40;99.90
12708;DHT22;6418;50.824;4.718;2022-12-07T10:09:19;4.50;99.90
12708;DHT22;6418;50.824;4.718;2022-12-07T10:12:03;4.50;99.90
12708;DHT22;6418;50.824;4.718;2022-12-07T10:14:34;4.50;99.90
12708;DHT22;6418;50.824;4.718;2022-12-07T10:17:01;4.60;99.90
12708;DHT22;6418;50.824;4.718;2022-12-07T10:19:31;4.60;99.90
12708;DHT22;6418;50.824;4.718;2022-12-07T10:22:09;4.80;99.90
12708;DHT22;6418;50.824;4.718;2022-12-07T10:24:37;4.80;99.90
12708;DHT22;6418;50.824;4.718;2022-12-07T10:27:10;4.80;99.90
12708;DHT22;6418;50.824;4.718;2022-12-07T10:29:49;4.80;99.90
12708;DHT22;6418;50.824;4.718;2022-12-07T10:32:31;4.90;99.90
12708;DHT22;6418;50.824;4.718;2022-12-07T10:35:27;5.00;99.90
12708;DHT22;6418;50.824;4.718;2022-12-07T10:37:58;5.00;99.90
12708;DHT22;6418;50.824;4.718;2022-12-07T10:40:31;5.00;99.90
12708;DHT22;6418;50.824;4.718;2022-12-07T10:43:04;5.10;99.90
12708;DHT22;6418;50.824;4.718;2022-12-07T10:45:34;5.10;99.90
12708;DHT22;6418;50.824;4.718;2022-12-07T10:48:08;5.20;99.90
12708;DHT22;6418;50.824;4.718;2022-12-07T10:50:52;5.20;99.90
12708;DHT22;6418;50.824;4.718;2022-12-07T10:53:34;5.20;99.90
12708;DHT22;6418;50.824;4.718;2022-12-07T10:59:21;5.30;99.90
12708;DHT22;6418;50.824;4.718;2022-12-07T11:01:57;5.30;99.90
12708;DHT22;6418;50.824;4.718;2022-12-07T11:04:32;5.40;99.90
12708;DHT22;6418;50.824;4.718;2022-12-07T11:07:04;5.40;99.90
12708;DHT22;6418;50.824;4.718;2022-12-07T11:09:53;5.50;99.90
12708;DHT22;6418;50.824;4.718;2022-12-07T11:12:34;5.50;99.90
12708;DHT22;6418;50.824;4.718;2022-12-07T11:15:13;5.50;99.90
12708;DHT22;6418;50.824;4.718;2022-12-07T11:17:48;5.60;99.90
12708;DHT22;6418;50.824;4.718;2022-12-07T11:20:33;5.60;99.90
12708;DHT22;6418;50.824;4.718;2022-12-07T11:23:07;6.40;99.90
12708;DHT22;6418;50.824;4.718;2022-12-07T11:25:42;5.70;99.90
12708;DHT22;6418;50.824;4.718;2022-12-07T11:28:23;5.70;99.90
12708;DHT22;6418;50.824;4.718;2022-12-07T11:30:59;5.80;99.90
12708;DHT22;6418;50.824;4.718;2022-12-07T11:33:34;5.80;99.90
12708;DHT22;6418;50.824;4.718;2022-12-07T11:36:11;5.90;99.90
12708;DHT22;6418;50.824;4.718;2022-12-07T11:38:44;5.90;99.90
12708;DHT22;6418;50.824;4.718;2022-12-07T11:41:12;5.90;99.90
12708;DHT22;6418;50.824;4.718;2022-12-07T11:43:53;5.90;99.90
12708;DHT22;6418;50.824;4.718;2022-12-07T11:46:23;6.00;99.90
12708;DHT22;6418;50.824;4.718;2022-12-07T11:48:58;6.00;99.90
12708;DHT22;6418;50.824;4.718;2022-12-07T11:51:33;6.10;99.90
12708;DHT22;6418;50.824;4.718;2022-12-07T11:54:05;6.10;99.90
12708;DHT22;6418;50.824;4.718;2022-12-07T11:56:38;6.20;99.90
12708;DHT22;6418;50.824;4.718;2022-12-07T11:59:09;6.20;99.90
12708;DHT22;6418;50.824;4.718;2022-12-07T12:01:46;6.20;99.90
12708;DHT22;6418;50.824;4.718;2022-12-07T12:04:27;6.20;99.90
12708;DHT22;6418;50.824;4.718;2022-12-07T12:06:55;6.20;99.90
12708;DHT22;6418;50.824;4.718;2022-12-07T12:09:26;6.20;99.90
12708;DHT22;6418;50.824;4.718;2022-12-07T12:12:07;6.20;99.90
12708;DHT22;6418;50.824;4.718;2022-12-07T12:14:48;6.20;99.90
12708;DHT22;6418;50.824;4.718;2022-12-07T12:17:41;6.20;99.90
12708;DHT22;6418;50.824;4.718;2022-12-07T12:20:20;6.20;99.90
12708;DHT22;6418;50.824;4.718;2022-12-07T12:22:51;6.20;99.90
12708;DHT22;6418;50.824;4.718;2022-12-07T12:25:21;6.30;99.90
12708;DHT22;6418;50.824;4.718;2022-12-07T12:27:51;6.30;99.90
12708;DHT22;6418;50.824;4.718;2022-12-07T12:30:30;6.40;99.90
12708;DHT22;6418;50.824;4.718;2022-12-07T12:33:04;6.50;99.90
12708;DHT22;6418;50.824;4.718;2022-12-07T12:35:35;6.50;99.90
12708;DHT22;6418;50.824;4.718;2022-12-07T12:38:30;6.50;99.90
12708;DHT22;6418;50.824;4.718;2022-12-07T12:40:59;6.60;99.90
12708;DHT22;6418;50.824;4.718;2022-12-07T12:43:56;6.60;99.90
12708;DHT22;6418;50.824;4.718;2022-12-07T12:46:51;6.70;99.90
12708;DHT22;6418;50.824;4.718;2022-12-07T12:49:43;6.70;99.90
12708;DHT22;6418;50.824;4.718;2022-12-07T12:55:29;6.70;99.90
12708;DHT22;6418;50.824;4.718;2022-12-07T13:01:41;6.70;99.90
12708;DHT22;6418;50.824;4.718;2022-12-07T13:04:49;6.70;99.90
12708;DHT22;6418;50.824;4.718;2022-12-07T13:10:44;6.70;99.90
12708;DHT22;6418;50.824;4.718;2022-12-07T13:13:35;6.70;99.90
12708;DHT22;6418;50.824;4.718;2022-12-07T13:22:49;6.60;99.90
12708;DHT22;6418;50.824;4.718;2022-12-07T13:25:23;6.50;99.90
12708;DHT22;6418;50.824;4.718;2022-12-07T13:27:58;6.50;99.90
12708;DHT22;6418;50.824;4.718;2022-12-07T13:30:29;6.50;99.90
12708;DHT22;6418;50.824;4.718;2022-12-07T13:32:58;6.50;99.90
12708;DHT22;6418;50.824;4.718;2022-12-07T13:35:35;6.50;99.90
12708;DHT22;6418;50.824;4.718;2022-12-07T13:38:05;6.50;99.90
12708;DHT22;6418;50.824;4.718;2022-12-07T13:40:33;6.50;99.90
12708;DHT22;6418;50.824;4.718;2022-12-07T13:43:02;6.50;99.90
12708;DHT22;6418;50.824;4.718;2022-12-07T13:45:31;6.50;99.90
12708;DHT22;6418;50.824;4.718;2022-12-07T13:48:21;6.50;99.90
12708;DHT22;6418;50.824;4.718;2022-12-07T13:50:56;6.50;99.90
12708;DHT22;6418;50.824;4.718;2022-12-07T13:53:23;6.50;99.90
12708;DHT22;6418;50.824;4.718;2022-12-07T13:55:53;6.50;99.90
12708;DHT22;6418;50.824;4.718;2022-12-07T13:58:21;6.80;99.90
12708;DHT22;6418;50.824;4.718;2022-12-07T14:00:49;6.60;99.90
12708;DHT22;6418;50.824;4.718;2022-12-07T14:03:29;6.60;99.90
12708;DHT22;6418;50.824;4.718;2022-12-07T14:06:22;6.60;99.90
12708;DHT22;6418;50.824;4.718;2022-12-07T14:08:51;6.50;99.90
12708;DHT22;6418;50.824;4.718;2022-12-07T14:11:32;6.50;99.90
12708;DHT22;6418;50.824;4.718;2022-12-07T14:14:00;6.60;99.90
12708;DHT22;6418;50.824;4.718;2022-12-07T14:16:29;6.60;99.90
12708;DHT22;6418;50.824;4.718;2022-12-07T14:18:59;6.60;99.90
12708;DHT22;6418;50.824;4.718;2022-12-07T14:21:29;6.60;99.90
12708;DHT22;6418;50.824;4.718;2022-12-07T14:24:10;6.60;99.90
12708;DHT22;6418;50.824;4.718;2022-12-07T14:26:38;6.50;99.90
12708;DHT22;6418;50.824;4.718;2022-12-07T14:29:29;6.50;99.90
12708;DHT22;6418;50.824;4.718;2022-12-07T14:31:57;6.50;99.90
12708;DHT22;6418;50.824;4.718;2022-12-07T14:34:25;6.50;99.90
12708;DHT22;6418;50.824;4.718;2022-12-07T14:36:53;6.50;99.90
12708;DHT22;6418;50.824;4.718;2022-12-07T14:39:20;6.50;99.90
12708;DHT22;6418;50.824;4.718;2022-12-07T14:41:47;6.40;99.90
12708;DHT22;6418;50.824;4.718;2022-12-07T14:44:18;6.40;99.90
12708;DHT22;6418;50.824;4.718;2022-12-07T14:46:45;6.50;99.90
12708;DHT22;6418;50.824;4.718;2022-12-07T14:49:12;6.40;99.90
12708;DHT22;6418;50.824;4.718;2022-12-07T14:51:39;6.40;99.90
12708;DHT22;6418;50.824;4.718;2022-12-07T14:54:14;6.40;99.90
12708;DHT22;6418;50.824;4.718;2022-12-07T14:56:42;6.30;99.90
12708;DHT22;6418;50.824;4.718;2022-12-07T14:59:09;6.10;99.90
12708;DHT22;6418;50.824;4.718;2022-12-07T15:01:37;6.00;99.90
12708;DHT22;6418;50.824;4.718;2022-12-07T15:04:04;6.60;99.90
12708;DHT22;6418;50.824;4.718;2022-12-07T15:06:31;5.90;99.90
12708;DHT22;6418;50.824;4.718;2022-12-07T15:08:58;5.90;99.90
12708;DHT22;6418;50.824;4.718;2022-12-07T15:11:27;5.90;99.90
12708;DHT22;6418;50.824;4.718;2022-12-07T15:13:54;5.80;99.90
12708;DHT22;6418;50.824;4.718;2022-12-07T15:16:40;5.80;99.90
12708;DHT22;6418;50.824;4.718;2022-12-07T15:19:12;5.80;99.90
12708;DHT22;6418;50.824;4.718;2022-12-07T15:21:39;5.70;99.90
12708;DHT22;6418;50.824;4.718;2022-12-07T15:24:07;5.70;99.90
12708;DHT22;6418;50.824;4.718;2022-12-07T15:26:36;5.60;99.90
12708;DHT22;6418;50.824;4.718;2022-12-07T15:29:03;5.60;99.90
12708;DHT22;6418;50.824;4.718;2022-12-07T15:31:31;5.60;99.90
12708;DHT22;6418;50.824;4.718;2022-12-07T15:33:59;5.50;99.90
12708;DHT22;6418;50.824;4.718;2022-12-07T15:36:27;5.40;99.90
12708;DHT22;6418;50.824;4.718;2022-12-07T15:38:55;5.40;99.90
12708;DHT22;6418;50.824;4.718;2022-12-07T15:41:22;5.40;99.90
12708;DHT22;6418;50.824;4.718;2022-12-07T15:43:50;5.30;99.90
12708;DHT22;6418;50.824;4.718;2022-12-07T15:46:38;5.30;99.90
12708;DHT22;6418;50.824;4.718;2022-12-07T15:49:08;5.20;99.90
12708;DHT22;6418;50.824;4.718;2022-12-07T15:51:36;5.20;99.90
12708;DHT22;6418;50.824;4.718;2022-12-07T15:54:03;5.20;99.90
12708;DHT22;6418;50.824;4.718;2022-12-07T15:56:30;5.20;99.90
12708;DHT22;6418;50.824;4.718;2022-12-07T15:58:58;5.10;99.90
12708;DHT22;6418;50.824;4.718;2022-12-07T16:01:25;5.10;99.90
12708;DHT22;6418;50.824;4.718;2022-12-07T16:03:52;5.10;99.90
12708;DHT22;6418;50.824;4.718;2022-12-07T16:06:19;5.10;99.90
12708;DHT22;6418;50.824;4.718;2022-12-07T16:08:46;5.10;99.90
12708;DHT22;6418;50.824;4.718;2022-12-07T16:11:14;5.10;99.90
12708;DHT22;6418;50.824;4.718;2022-12-07T16:13:41;5.10;99.90
12708;DHT22;6418;50.824;4.718;2022-12-07T16:16:15;5.00;99.90
12708;DHT22;6418;50.824;4.718;2022-12-07T16:18:43;5.00;99.90
12708;DHT22;6418;50.824;4.718;2022-12-07T16:21:11;5.00;99.90
12708;DHT22;6418;50.824;4.718;2022-12-07T16:23:38;5.00;99.90
12708;DHT22;6418;50.824;4.718;2022-12-07T16:26:06;5.00;99.90
12708;DHT22;6418;50.824;4.718;2022-12-07T16:28:34;5.00;99.90
12708;DHT22;6418;50.824;4.718;2022-12-07T16:31:03;5.00;99.90
12708;DHT22;6418;50.824;4.718;2022-12-07T16:33:33;5.00;99.90
12708;DHT22;6418;50.824;4.718;2022-12-07T16:36:01;5.00;99.90
12708;DHT22;6418;50.824;4.718;2022-12-07T16:38:28;5.40;99.90
12708;DHT22;6418;50.824;4.718;2022-12-07T16:40:55;5.00;99.90
12708;DHT22;6418;50.824;4.718;2022-12-07T16:43:22;5.00;99.90
12708;DHT22;6418;50.824;4.718;2022-12-07T16:45:49;5.00;99.90